Time,TemperatureF,DewpointF,PressureIn,WindDirection,WindDirectionDegrees,WindSpeedMPH,WindSpeedGustMPH,Humidity,HourlyPrecipIn,Conditions,Clouds,dailyrainin,SolarRadiationWatts/m^2,SoftwareType,DateUTC
2013-05-20 00:03:00,74.0,65.0,-100.00,East,96,2.0,6.0,73,0.00,,,0.00,0.000000,,2013-05-20 10:03:00,
2013-05-20 00:12:00,74.0,65.0,-100.00,East,96,2.0,6.0,73,0.00,,,0.00,0.000000,,2013-05-20 10:12:00,
2013-05-20 00:42:00,73.0,64.0,-100.00,East,92,3.0,6.0,73,0.00,,,0.00,0.000000,,2013-05-20 10:42:00,
2013-05-20 00:52:00,73.0,64.0,-100.00,East,92,3.0,6.0,73,0.00,,,0.00,0.000000,,2013-05-20 10:52:00,
2013-05-20 01:02:00,73.0,64.0,-100.00,East,92,3.0,6.0,73,0.00,,,0.00,0.000000,,2013-05-20 11:02:00,
2013-05-20 01:12:00,73.0,64.0,-100.00,East,92,3.0,6.0,73,0.00,,,0.00,0.000000,,2013-05-20 11:12:00,
2013-05-20 01:21:00,73.0,64.0,-100.00,East,92,3.0,6.0,73,0.00,,,0.00,0.000000,,2013-05-20 11:21:00,
2013-05-20 01:42:00,71.0,60.0,-100.00,East,91,3.0,6.0,69,0.00,,,0.00,0.000000,,2013-05-20 11:42:00,
2013-05-20 01:52:00,71.0,60.0,-100.00,East,91,3.0,6.0,69,0.00,,,0.00,0.000000,,2013-05-20 11:52:00,
2013-05-20 02:01:00,71.0,60.0,-100.00,East,91,3.0,6.0,69,0.00,,,0.00,0.000000,,2013-05-20 12:01:00,
2013-05-20 02:11:00,71.0,60.0,-100.00,East,91,3.0,6.0,69,0.00,,,0.00,0.000000,,2013-05-20 12:11:00,
2013-05-20 02:21:00,71.0,60.0,-100.00,East,91,3.0,6.0,69,0.00,,,0.00,0.000000,,2013-05-20 12:21:00,
2013-05-20 02:42:00,71.0,59.0,-100.00,East,81,3.0,7.0,67,0.00,,,0.00,0.000000,,2013-05-20 12:42:00,
2013-05-20 02:52:00,71.0,59.0,-100.00,East,81,3.0,7.0,67,0.00,,,0.00,0.000000,,2013-05-20 12:52:00,
2013-05-20 03:01:00,71.0,59.0,-100.00,East,81,3.0,7.0,67,0.00,,,0.00,0.000000,,2013-05-20 13:01:00,
2013-05-20 03:11:00,71.0,59.0,-100.00,East,81,3.0,7.0,67,0.00,,,0.00,0.000000,,2013-05-20 13:11:00,
2013-05-20 03:21:00,71.0,59.0,-100.00,East,81,3.0,7.0,67,0.00,,,0.00,0.000000,,2013-05-20 13:21:00,
2013-05-20 03:42:00,71.0,59.0,-100.00,ENE,78,3.0,7.0,67,0.00,,,0.00,0.000000,,2013-05-20 13:42:00,
2013-05-20 03:52:00,71.0,59.0,-100.00,ENE,78,3.0,7.0,67,0.00,,,0.00,0.000000,,2013-05-20 13:52:00,
2013-05-20 04:01:00,71.0,59.0,-100.00,ENE,78,3.0,7.0,67,0.00,,,0.00,0.000000,,2013-05-20 14:01:00,
2013-05-20 04:11:00,71.0,59.0,-100.00,ENE,78,3.0,7.0,67,0.00,,,0.00,0.000000,,2013-05-20 14:11:00,
2013-05-20 04:21:00,71.0,59.0,-100.00,ENE,78,3.0,7.0,67,0.00,,,0.00,0.000000,,2013-05-20 14:21:00,
2013-05-20 04:42:00,70.0,58.0,-100.00,East,83,3.0,7.0,65,0.00,,,0.00,0.000000,,2013-05-20 14:42:00,
2013-05-20 04:52:00,70.0,58.0,-100.00,East,83,3.0,7.0,65,0.00,,,0.00,0.000000,,2013-05-20 14:52:00,
2013-05-20 05:01:00,70.0,58.0,-100.00,East,83,3.0,7.0,65,0.00,,,0.00,0.000000,,2013-05-20 15:01:00,
2013-05-20 05:11:00,70.0,58.0,-100.00,East,83,3.0,7.0,65,0.00,,,0.00,0.000000,,2013-05-20 15:11:00,
2013-05-20 05:21:00,70.0,58.0,-100.00,East,83,3.0,7.0,65,0.00,,,0.00,0.000000,,2013-05-20 15:21:00,
2013-05-20 05:22:00,70.0,57.0,-100.00,East,79,3.0,9.0,63,0.00,,,0.00,0.000000,,2013-05-20 15:22:00,
2013-05-20 05:42:00,70.0,57.0,-100.00,East,79,3.0,9.0,63,0.00,,,0.00,0.000000,,2013-05-20 15:42:00,
2013-05-20 05:53:00,70.0,57.0,-100.00,East,79,3.0,9.0,63,0.00,,,0.00,0.000000,,2013-05-20 15:53:00,
2013-05-20 06:02:00,70.0,57.0,-100.00,East,79,3.0,9.0,63,0.00,,,0.00,0.000000,,2013-05-20 16:02:00,
2013-05-20 06:12:00,70.0,57.0,-100.00,East,79,3.0,9.0,63,0.00,,,0.00,0.000000,,2013-05-20 16:12:00,
2013-05-20 06:22:00,69.0,57.0,-100.00,East,89,3.0,7.0,65,0.00,,,0.00,1.000000,,2013-05-20 16:22:00,
2013-05-20 06:42:00,69.0,57.0,-100.00,East,89,3.0,7.0,65,0.00,,,0.00,1.000000,,2013-05-20 16:42:00,
2013-05-20 06:53:00,69.0,57.0,-100.00,East,89,3.0,7.0,65,0.00,,,0.00,1.000000,,2013-05-20 16:53:00,
2013-05-20 07:02:00,69.0,57.0,-100.00,East,89,3.0,7.0,65,0.00,,,0.00,1.000000,,2013-05-20 17:02:00,
2013-05-20 07:11:00,69.0,57.0,-100.00,East,89,3.0,7.0,65,0.00,,,0.00,1.000000,,2013-05-20 17:11:00,
2013-05-20 07:22:00,71.0,54.0,-100.00,East,81,3.0,7.0,56,0.00,,,-99.99,83.000000,,2013-05-20 17:22:00,
2013-05-20 07:45:00,71.0,54.0,-100.00,East,81,3.0,7.0,56,0.00,,,-99.99,83.000000,,2013-05-20 17:45:00,
2013-05-20 07:53:00,71.0,54.0,-100.00,East,81,3.0,7.0,56,0.00,,,-99.99,83.000000,,2013-05-20 17:53:00,
2013-05-20 08:02:00,71.0,54.0,-100.00,East,81,3.0,7.0,56,0.00,,,-99.99,83.000000,,2013-05-20 18:02:00,
2013-05-20 08:12:00,71.0,54.0,-100.00,East,81,3.0,7.0,56,0.00,,,-99.99,83.000000,,2013-05-20 18:12:00,
2013-05-20 08:42:00,78.0,64.0,-100.00,East,93,2.0,7.0,63,0.00,,,0.00,298.000000,,2013-05-20 18:42:00,
2013-05-20 08:55:00,78.0,64.0,-100.00,East,93,2.0,7.0,63,0.00,,,0.00,298.000000,,2013-05-20 18:55:00,
2013-05-20 09:04:00,78.0,64.0,-100.00,East,93,2.0,7.0,63,0.00,,,0.00,298.000000,,2013-05-20 19:04:00,
2013-05-20 09:11:00,78.0,64.0,-100.00,East,93,2.0,7.0,63,0.00,,,0.00,298.000000,,2013-05-20 19:11:00,
2013-05-20 09:21:00,78.0,64.0,-100.00,East,93,2.0,7.0,63,0.00,,,0.00,298.000000,,2013-05-20 19:21:00,
2013-05-20 09:42:00,78.0,65.0,-100.00,SSW,212,4.0,8.0,64,0.00,,,0.00,511.000000,,2013-05-20 19:42:00,
2013-05-20 09:52:00,78.0,65.0,-100.00,SSW,212,4.0,8.0,64,0.00,,,0.00,511.000000,,2013-05-20 19:52:00,
2013-05-20 10:01:00,78.0,65.0,-100.00,SSW,212,4.0,8.0,64,0.00,,,0.00,511.000000,,2013-05-20 20:01:00,
2013-05-20 10:11:00,78.0,65.0,-100.00,SSW,212,4.0,8.0,64,0.00,,,0.00,511.000000,,2013-05-20 20:11:00,
2013-05-20 10:21:00,78.0,65.0,-100.00,SSW,212,4.0,8.0,64,0.00,,,0.00,511.000000,,2013-05-20 20:21:00,
2013-05-20 10:52:00,79.0,66.0,-100.00,SSW,213,5.0,10.0,64,0.00,,,0.00,689.000000,,2013-05-20 20:52:00,
2013-05-20 11:01:00,79.0,66.0,-100.00,SSW,213,5.0,10.0,64,0.00,,,0.00,689.000000,,2013-05-20 21:01:00,
2013-05-20 11:11:00,79.0,66.0,-100.00,SSW,213,5.0,10.0,64,0.00,,,0.00,689.000000,,2013-05-20 21:11:00,
2013-05-20 11:21:00,79.0,66.0,-100.00,SSW,213,5.0,10.0,64,0.00,,,0.00,689.000000,,2013-05-20 21:21:00,
2013-05-20 11:22:00,80.0,64.0,-100.00,SW,217,5.0,9.0,59,0.00,,,0.00,769.000000,,2013-05-20 21:22:00,
2013-05-20 11:43:00,80.0,64.0,-100.00,SW,217,5.0,9.0,59,0.00,,,0.00,769.000000,,2013-05-20 21:43:00,
2013-05-20 11:53:00,80.0,64.0,-100.00,SW,217,5.0,9.0,59,0.00,,,0.00,769.000000,,2013-05-20 21:53:00,
2013-05-20 12:02:00,80.0,64.0,-100.00,SW,217,5.0,9.0,59,0.00,,,0.00,769.000000,,2013-05-20 22:02:00,
2013-05-20 12:12:00,80.0,64.0,-100.00,SW,217,5.0,9.0,59,0.00,,,0.00,769.000000,,2013-05-20 22:12:00,
2013-05-20 12:42:00,82.0,65.0,-100.00,SW,234,5.0,10.0,56,0.00,,,0.00,951.000000,,2013-05-20 22:42:00,
2013-05-20 12:52:00,82.0,65.0,-100.00,SW,234,5.0,10.0,56,0.00,,,0.00,951.000000,,2013-05-20 22:52:00,
2013-05-20 13:02:00,82.0,65.0,-100.00,SW,234,5.0,10.0,56,0.00,,,0.00,951.000000,,2013-05-20 23:02:00,
2013-05-20 13:12:00,82.0,65.0,-100.00,SW,234,5.0,10.0,56,0.00,,,0.00,951.000000,,2013-05-20 23:12:00,
2013-05-20 13:21:00,82.0,65.0,-100.00,SW,234,5.0,10.0,56,0.00,,,0.00,951.000000,,2013-05-20 23:21:00,
2013-05-20 13:42:00,82.0,64.0,-100.00,WSW,244,5.0,10.0,55,0.00,,,0.00,899.000000,,2013-05-20 23:42:00,
2013-05-20 13:53:00,82.0,64.0,-100.00,WSW,244,5.0,10.0,55,0.00,,,0.00,899.000000,,2013-05-20 23:53:00,
2013-05-20 14:01:00,82.0,64.0,-100.00,WSW,244,5.0,10.0,55,0.00,,,0.00,899.000000,,2013-05-21 00:01:00,
2013-05-20 14:11:00,82.0,64.0,-100.00,WSW,244,5.0,10.0,55,0.00,,,0.00,899.000000,,2013-05-21 00:11:00,
2013-05-20 14:21:00,82.0,64.0,-100.00,WSW,244,5.0,10.0,55,0.00,,,0.00,899.000000,,2013-05-21 00:21:00,
2013-05-20 14:42:00,83.0,65.0,-100.00,WSW,255,4.0,9.0,54,0.00,,,0.00,923.000000,,2013-05-21 00:42:00,
2013-05-20 14:52:00,83.0,65.0,-100.00,WSW,255,4.0,9.0,54,0.00,,,0.00,923.000000,,2013-05-21 00:52:00,
2013-05-20 15:01:00,83.0,65.0,-100.00,WSW,255,4.0,9.0,54,0.00,,,0.00,923.000000,,2013-05-21 01:01:00,
2013-05-20 15:11:00,83.0,65.0,-100.00,WSW,255,4.0,9.0,54,0.00,,,0.00,923.000000,,2013-05-21 01:11:00,
2013-05-20 15:21:00,83.0,65.0,-100.00,WSW,255,4.0,9.0,54,0.00,,,0.00,923.000000,,2013-05-21 01:21:00,
2013-05-20 15:42:00,83.0,65.0,-100.00,West,263,5.0,10.0,54,0.00,,,0.00,810.000000,,2013-05-21 01:42:00,
2013-05-20 15:53:00,83.0,65.0,-100.00,West,263,5.0,10.0,54,0.00,,,0.00,810.000000,,2013-05-21 01:53:00,
2013-05-20 16:01:00,83.0,65.0,-100.00,West,263,5.0,10.0,54,0.00,,,0.00,810.000000,,2013-05-21 02:01:00,
2013-05-20 16:11:00,83.0,65.0,-100.00,West,263,5.0,10.0,54,0.00,,,0.00,810.000000,,2013-05-21 02:11:00,
2013-05-20 16:21:00,83.0,65.0,-100.00,West,263,5.0,10.0,54,0.00,,,0.00,810.000000,,2013-05-21 02:21:00,
2013-05-20 16:42:00,83.0,66.0,-100.00,West,274,4.0,8.0,56,0.00,,,0.00,653.000000,,2013-05-21 02:42:00,
2013-05-20 16:52:00,83.0,66.0,-100.00,West,274,4.0,8.0,56,0.00,,,0.00,653.000000,,2013-05-21 02:52:00,
2013-05-20 17:02:00,83.0,66.0,-100.00,West,274,4.0,8.0,56,0.00,,,0.00,653.000000,,2013-05-21 03:02:00,
2013-05-20 17:11:00,83.0,66.0,-100.00,West,274,4.0,8.0,56,0.00,,,0.00,653.000000,,2013-05-21 03:11:00,
2013-05-20 17:21:00,83.0,66.0,-100.00,West,274,4.0,8.0,56,0.00,,,0.00,653.000000,,2013-05-21 03:21:00,
2013-05-20 17:22:00,82.0,64.0,-100.00,West,263,4.0,9.0,55,0.00,,,0.00,451.000000,,2013-05-21 03:22:00,
2013-05-20 17:43:00,82.0,64.0,-100.00,West,263,4.0,9.0,55,0.00,,,0.00,451.000000,,2013-05-21 03:43:00,
2013-05-20 17:53:00,82.0,64.0,-100.00,West,263,4.0,9.0,55,0.00,,,0.00,451.000000,,2013-05-21 03:53:00,
2013-05-20 18:03:00,82.0,64.0,-100.00,West,263,4.0,9.0,55,0.00,,,0.00,451.000000,,2013-05-21 04:03:00,
2013-05-20 18:12:00,82.0,64.0,-100.00,West,263,4.0,9.0,55,0.00,,,0.00,451.000000,,2013-05-21 04:12:00,
2013-05-20 18:42:00,81.0,66.0,-100.00,West,262,3.0,8.0,60,0.00,,,0.00,248.000000,,2013-05-21 04:42:00,
2013-05-20 18:53:00,81.0,66.0,-100.00,West,262,3.0,8.0,60,0.00,,,0.00,248.000000,,2013-05-21 04:53:00,
2013-05-20 19:02:00,81.0,66.0,-100.00,West,262,3.0,8.0,60,0.00,,,0.00,248.000000,,2013-05-21 05:02:00,
2013-05-20 19:11:00,81.0,66.0,-100.00,West,262,3.0,8.0,60,0.00,,,0.00,248.000000,,2013-05-21 05:11:00,
2013-05-20 19:21:00,81.0,66.0,-100.00,West,262,3.0,8.0,60,0.00,,,0.00,248.000000,,2013-05-21 05:21:00,
2013-05-20 19:42:00,79.0,66.0,-100.00,West,273,2.0,6.0,65,0.00,,,0.00,59.000000,,2013-05-21 05:42:00,
2013-05-20 19:52:00,79.0,66.0,-100.00,West,273,2.0,6.0,65,0.00,,,0.00,59.000000,,2013-05-21 05:52:00,
2013-05-20 20:02:00,79.0,66.0,-100.00,West,273,2.0,6.0,65,0.00,,,0.00,59.000000,,2013-05-21 06:02:00,
2013-05-20 20:11:00,79.0,66.0,-100.00,West,273,2.0,6.0,65,0.00,,,0.00,59.000000,,2013-05-21 06:11:00,
2013-05-20 20:21:00,79.0,66.0,-100.00,West,273,2.0,6.0,65,0.00,,,0.00,59.000000,,2013-05-21 06:21:00,
2013-05-20 20:42:00,77.0,64.0,-100.00,SW,235,2.0,3.0,65,0.00,,,0.00,0.000000,,2013-05-21 06:42:00,
2013-05-20 20:52:00,77.0,64.0,-100.00,SW,235,2.0,3.0,65,0.00,,,0.00,0.000000,,2013-05-21 06:52:00,
2013-05-20 21:01:00,77.0,64.0,-100.00,SW,235,2.0,3.0,65,0.00,,,0.00,0.000000,,2013-05-21 07:01:00,
2013-05-20 21:11:00,77.0,64.0,-100.00,SW,235,2.0,3.0,65,0.00,,,0.00,0.000000,,2013-05-21 07:11:00,
2013-05-20 21:21:00,77.0,64.0,-100.00,SW,235,2.0,3.0,65,0.00,,,0.00,0.000000,,2013-05-21 07:21:00,
2013-05-20 21:42:00,77.0,65.0,-100.00,SSE,150,2.0,4.0,66,0.00,,,0.00,0.000000,,2013-05-21 07:42:00,
2013-05-20 21:52:00,77.0,65.0,-100.00,SSE,150,2.0,4.0,66,0.00,,,0.00,0.000000,,2013-05-21 07:52:00,
2013-05-20 22:01:00,77.0,65.0,-100.00,SSE,150,2.0,4.0,66,0.00,,,0.00,0.000000,,2013-05-21 08:01:00,
2013-05-20 22:11:00,77.0,65.0,-100.00,SSE,150,2.0,4.0,66,0.00,,,0.00,0.000000,,2013-05-21 08:11:00,
2013-05-20 22:21:00,77.0,65.0,-100.00,SSE,150,2.0,4.0,66,0.00,,,0.00,0.000000,,2013-05-21 08:21:00,
2013-05-20 22:42:00,75.0,60.0,-100.00,East,84,3.0,6.0,60,0.00,,,0.00,0.000000,,2013-05-21 08:42:00,
2013-05-20 22:52:00,75.0,60.0,-100.00,East,84,3.0,6.0,60,0.00,,,0.00,0.000000,,2013-05-21 08:52:00,
2013-05-20 23:01:00,75.0,60.0,-100.00,East,84,3.0,6.0,60,0.00,,,0.00,0.000000,,2013-05-21 09:01:00,
2013-05-20 23:11:00,75.0,60.0,-100.00,East,84,3.0,6.0,60,0.00,,,0.00,0.000000,,2013-05-21 09:11:00,
2013-05-20 23:21:00,75.0,60.0,-100.00,East,84,3.0,6.0,60,0.00,,,0.00,0.000000,,2013-05-21 09:21:00,
2013-05-20 23:22:00,73.0,59.0,-100.00,East,88,3.0,6.0,61,0.00,,,0.00,0.000000,,2013-05-21 09:22:00,
2013-05-20 23:53:00,73.0,59.0,-100.00,East,88,3.0,6.0,61,0.00,,,0.00,0.000000,,2013-05-21 09:53:00,